RYR228K EGPH-ESGG
Flight info
| Callsign | RYR228K |
|---|---|
| Flight time | 1h 31m |
| Altitude | 37000 |
| Route | GRICE P600 ASNUD DCT ALOTI DCT AMSEV DCT KUVUS N607 MAKUR |
| Aircraft | B38M/M-SDE1FGHILORVWXY/HB1 |
Departure
| Time | 2026-04-25 21:07 |
|---|---|
| Airport | Edinburgh Airport (EGPH) |
Arrival
| Time | 2026-04-25 22:38 |
|---|---|
| Airport | Göteborg Landvetter Airport (ESGG) |
| Time | Latitude | Longitude | Altitude | Speed | Heading |
|---|---|---|---|---|---|
| 2026-04-25 20:40 | 55.94967 | -3.36288 | 110 ft | 0 kts | 149° |
| 2026-04-25 20:45 | 55.94976 | -3.36298 | 109 ft | 3 kts | 149° |
| 2026-04-25 20:45 | 55.94994 | -3.36316 | 107 ft | 3 kts | 149° |
| 2026-04-25 20:46 | 55.95011 | -3.36334 | 109 ft | 3 kts | 148° |
| 2026-04-25 20:46 | 55.95028 | -3.36354 | 106 ft | 3 kts | 145° |
| 2026-04-25 20:46 | 55.95044 | -3.36375 | 107 ft | 3 kts | 143° |
| 2026-04-25 20:46 | 55.95061 | -3.36397 | 106 ft | 3 kts | 144° |
| 2026-04-25 20:47 | 55.95072 | -3.36411 | 108 ft | 1 kts | 146° |
| 2026-04-25 20:49 | 55.95071 | -3.36410 | 108 ft | 1 kts | 149° |
| 2026-04-25 20:49 | 55.95059 | -3.36397 | 106 ft | 3 kts | 149° |
| 2026-04-25 20:49 | 55.95031 | -3.36380 | 108 ft | 5 kts | 175° |
| 2026-04-25 20:50 | 55.95005 | -3.36400 | 108 ft | 2 kts | 237° |
| 2026-04-25 20:50 | 55.94997 | -3.36440 | 109 ft | 5 kts | 250° |
| 2026-04-25 20:50 | 55.94976 | -3.36509 | 108 ft | 8 kts | 239° |
| 2026-04-25 20:50 | 55.94944 | -3.36603 | 108 ft | 10 kts | 238° |
| 2026-04-25 20:51 | 55.94908 | -3.36712 | 109 ft | 11 kts | 239° |
| 2026-04-25 20:51 | 55.94925 | -3.36839 | 107 ft | 11 kts | 302° |
| 2026-04-25 20:51 | 55.94910 | -3.36945 | 106 ft | 10 kts | 237° |
| 2026-04-25 20:51 | 55.94870 | -3.37059 | 107 ft | 11 kts | 239° |
| 2026-04-25 20:52 | 55.94823 | -3.37200 | 107 ft | 16 kts | 238° |
| 2026-04-25 20:52 | 55.94779 | -3.37325 | 109 ft | 19 kts | 239° |
| 2026-04-25 20:52 | 55.94679 | -3.37621 | 113 ft | 21 kts | 239° |
| 2026-04-25 20:52 | 55.94603 | -3.37848 | 113 ft | 22 kts | 239° |
| 2026-04-25 20:53 | 55.94524 | -3.38079 | 114 ft | 22 kts | 239° |
| 2026-04-25 20:53 | 55.94445 | -3.38312 | 115 ft | 19 kts | 239° |
| 2026-04-25 20:53 | 55.94396 | -3.38457 | 115 ft | 13 kts | 238° |
| 2026-04-25 20:53 | 55.94352 | -3.38585 | 118 ft | 11 kts | 238° |
| 2026-04-25 20:54 | 55.94313 | -3.38700 | 118 ft | 10 kts | 239° |
| 2026-04-25 20:54 | 55.94287 | -3.38778 | 120 ft | 3 kts | 242° |
| 2026-04-25 20:54 | 55.94281 | -3.38808 | 121 ft | 0 kts | 260° |
| 2026-04-25 20:56 | 55.94280 | -3.38831 | 120 ft | 4 kts | 270° |
| 2026-04-25 20:56 | 55.94300 | -3.38880 | 120 ft | 7 kts | 320° |
| 2026-04-25 20:56 | 55.94324 | -3.38905 | 122 ft | 0 kts | 331° |
| 2026-04-25 21:05 | 55.94333 | -3.38914 | 122 ft | 5 kts | 329° |
| 2026-04-25 21:05 | 55.94405 | -3.38959 | 117 ft | 15 kts | 18° |
| 2026-04-25 21:05 | 55.94471 | -3.38803 | 117 ft | 17 kts | 58° |
| 2026-04-25 21:06 | 55.94540 | -3.38598 | 114 ft | 21 kts | 58° |
| 2026-04-25 21:06 | 55.94679 | -3.38190 | 117 ft | 75 kts | 59° |
| 2026-04-25 21:06 | 55.95085 | -3.36993 | 112 ft | 137 kts | 59° |
| 2026-04-25 21:06 | 55.95409 | -3.36031 | 114 ft | 138 kts | 59° |
| 2026-04-25 21:07 | 55.96222 | -3.33869 | 566 ft | 181 kts | 44° |
| 2026-04-25 21:07 | 55.97236 | -3.32340 | 1213 ft | 198 kts | 41° |
| 2026-04-25 21:07 | 55.98129 | -3.30503 | 1899 ft | 193 kts | 59° |
| 2026-04-25 21:07 | 55.98796 | -3.28574 | 2143 ft | 177 kts | 63° |
| 2026-04-25 21:08 | 55.99383 | -3.26610 | 1954 ft | 180 kts | 62° |
| 2026-04-25 21:08 | 56.00376 | -3.25208 | 2403 ft | 204 kts | 24° |
| 2026-04-25 21:08 | 56.01966 | -3.24611 | 2550 ft | 265 kts | 4° |
| 2026-04-25 21:08 | 56.03797 | -3.24886 | 2725 ft | 264 kts | 349° |
| 2026-04-25 21:09 | 56.06454 | -3.29031 | 2797 ft | 268 kts | 287° |
| 2026-04-25 21:09 | 56.06905 | -3.32241 | 3704 ft | 264 kts | 283° |
| 2026-04-25 21:09 | 56.07373 | -3.35426 | 4399 ft | 263 kts | 283° |
| 2026-04-25 21:10 | 56.07832 | -3.38588 | 4505 ft | 261 kts | 283° |
| 2026-04-25 21:10 | 56.08278 | -3.41713 | 4493 ft | 258 kts | 282° |
| 2026-04-25 21:10 | 56.08721 | -3.44851 | 4563 ft | 263 kts | 282° |
| 2026-04-25 21:10 | 56.09166 | -3.48021 | 5362 ft | 260 kts | 282° |
| 2026-04-25 21:11 | 56.09611 | -3.51206 | 5931 ft | 266 kts | 282° |
| 2026-04-25 21:11 | 56.10246 | -3.54316 | 5938 ft | 266 kts | 297° |
| 2026-04-25 21:11 | 56.11194 | -3.57166 | 6015 ft | 267 kts | 298° |
| 2026-04-25 21:11 | 56.12137 | -3.60032 | 6003 ft | 268 kts | 298° |
| 2026-04-25 21:12 | 56.13080 | -3.62936 | 6348 ft | 270 kts | 300° |
| 2026-04-25 21:12 | 56.14331 | -3.65457 | 6544 ft | 273 kts | 324° |
| 2026-04-25 21:12 | 56.16078 | -3.66760 | 6695 ft | 275 kts | 343° |
| 2026-04-25 21:12 | 56.17302 | -3.67350 | 6807 ft | 276 kts | 342° |
| 2026-04-25 21:13 | 56.19880 | -3.67432 | 7516 ft | 283 kts | 16° |
| 2026-04-25 21:13 | 56.21643 | -3.65835 | 8226 ft | 289 kts | 34° |
| 2026-04-25 21:13 | 56.23317 | -3.63758 | 8884 ft | 295 kts | 34° |
| 2026-04-25 21:13 | 56.25009 | -3.61635 | 9630 ft | 298 kts | 35° |
| 2026-04-25 21:14 | 56.26714 | -3.59475 | 10384 ft | 301 kts | 35° |
| 2026-04-25 21:14 | 56.28459 | -3.57244 | 10798 ft | 316 kts | 35° |
| 2026-04-25 21:14 | 56.30302 | -3.54880 | 11116 ft | 333 kts | 35° |
| 2026-04-25 21:14 | 56.32224 | -3.52406 | 11628 ft | 342 kts | 35° |
| 2026-04-25 21:15 | 56.34166 | -3.49901 | 12384 ft | 345 kts | 36° |
| 2026-04-25 21:15 | 56.36130 | -3.47365 | 13082 ft | 350 kts | 36° |
| 2026-04-25 21:15 | 56.38116 | -3.44796 | 13827 ft | 353 kts | 36° |
| 2026-04-25 21:15 | 56.40122 | -3.42193 | 14555 ft | 356 kts | 35° |
| 2026-04-25 21:16 | 56.42141 | -3.39575 | 15247 ft | 360 kts | 35° |
| 2026-04-25 21:16 | 56.44191 | -3.36936 | 15939 ft | 363 kts | 33° |
| 2026-04-25 21:16 | 56.46289 | -3.34357 | 16614 ft | 367 kts | 33° |
| 2026-04-25 21:16 | 56.48412 | -3.31743 | 17275 ft | 371 kts | 33° |
| 2026-04-25 21:17 | 56.50553 | -3.29096 | 17933 ft | 374 kts | 33° |
| 2026-04-25 21:17 | 56.52710 | -3.26419 | 18569 ft | 378 kts | 33° |
| 2026-04-25 21:17 | 56.54891 | -3.23709 | 19122 ft | 382 kts | 33° |
| 2026-04-25 21:17 | 56.57089 | -3.20973 | 19654 ft | 385 kts | 33° |
| 2026-04-25 21:18 | 56.59305 | -3.18211 | 20215 ft | 388 kts | 33° |
| 2026-04-25 21:18 | 56.61537 | -3.15425 | 20740 ft | 391 kts | 33° |
| 2026-04-25 21:18 | 56.63785 | -3.12615 | 21272 ft | 394 kts | 33° |
| 2026-04-25 21:18 | 56.66020 | -3.09816 | 21788 ft | 397 kts | 33° |
| 2026-04-25 21:19 | 56.68218 | -3.06737 | 22261 ft | 402 kts | 45° |
| 2026-04-25 21:19 | 56.69847 | -3.02626 | 22849 ft | 402 kts | 64° |
| 2026-04-25 21:19 | 56.70959 | -2.97923 | 23290 ft | 407 kts | 68° |
| 2026-04-25 21:19 | 56.72037 | -2.93119 | 23727 ft | 411 kts | 68° |
| 2026-04-25 21:20 | 56.73100 | -2.88278 | 24180 ft | 413 kts | 69° |
| 2026-04-25 21:20 | 56.73457 | -2.86629 | 24322 ft | 414 kts | 69° |
| 2026-04-25 21:20 | 56.75202 | -2.78494 | 25035 ft | 417 kts | 70° |
| 2026-04-25 21:20 | 56.76254 | -2.73545 | 25428 ft | 420 kts | 70° |
| 2026-04-25 21:21 | 56.77307 | -2.68572 | 25825 ft | 422 kts | 70° |
| 2026-04-25 21:21 | 56.78367 | -2.63557 | 26214 ft | 424 kts | 70° |
| 2026-04-25 21:21 | 56.79428 | -2.58521 | 26592 ft | 427 kts | 70° |
| 2026-04-25 21:21 | 56.80494 | -2.53447 | 26973 ft | 429 kts | 70° |
| 2026-04-25 21:22 | 56.81564 | -2.48345 | 27341 ft | 432 kts | 70° |
| 2026-04-25 21:22 | 56.82636 | -2.43214 | 27713 ft | 434 kts | 71° |
| 2026-04-25 21:22 | 56.83715 | -2.38045 | 28063 ft | 437 kts | 71° |
| 2026-04-25 21:22 | 56.84795 | -2.32850 | 28415 ft | 439 kts | 71° |
| 2026-04-25 21:23 | 56.85881 | -2.27617 | 28752 ft | 441 kts | 70° |
| 2026-04-25 21:23 | 56.86969 | -2.22360 | 29100 ft | 444 kts | 71° |
| 2026-04-25 21:23 | 56.88063 | -2.17064 | 29420 ft | 446 kts | 71° |
| 2026-04-25 21:23 | 56.89159 | -2.11737 | 29750 ft | 449 kts | 71° |
| 2026-04-25 21:24 | 56.90258 | -2.06387 | 30072 ft | 451 kts | 71° |
| 2026-04-25 21:24 | 56.91361 | -2.01000 | 30382 ft | 453 kts | 71° |
| 2026-04-25 21:24 | 56.92467 | -1.95581 | 30643 ft | 455 kts | 71° |
| 2026-04-25 21:24 | 56.93576 | -1.90138 | 30918 ft | 457 kts | 71° |
| 2026-04-25 21:25 | 56.94685 | -1.84680 | 31196 ft | 458 kts | 71° |
| 2026-04-25 21:25 | 56.95796 | -1.79192 | 31464 ft | 460 kts | 71° |
| 2026-04-25 21:25 | 56.96907 | -1.73690 | 31727 ft | 462 kts | 71° |
| 2026-04-25 21:25 | 56.98022 | -1.68157 | 31997 ft | 463 kts | 71° |
| 2026-04-25 21:26 | 56.99135 | -1.62614 | 32257 ft | 465 kts | 71° |
| 2026-04-25 21:26 | 57.00252 | -1.57037 | 32502 ft | 466 kts | 71° |
| 2026-04-25 21:26 | 57.01369 | -1.51446 | 32759 ft | 468 kts | 71° |
| 2026-04-25 21:26 | 57.02486 | -1.45836 | 33072 ft | 468 kts | 71° |
| 2026-04-25 21:27 | 57.03600 | -1.40228 | 33423 ft | 467 kts | 71° |
| 2026-04-25 21:27 | 57.04707 | -1.34639 | 33772 ft | 466 kts | 72° |
| 2026-04-25 21:27 | 57.05810 | -1.29052 | 34118 ft | 465 kts | 72° |
| 2026-04-25 21:27 | 57.06909 | -1.23473 | 34433 ft | 464 kts | 72° |
| 2026-04-25 21:28 | 57.07634 | -1.19782 | 34617 ft | 463 kts | 72° |
| 2026-04-25 21:28 | 57.08726 | -1.14213 | 34889 ft | 463 kts | 71° |
| 2026-04-25 21:28 | 57.09811 | -1.08660 | 35216 ft | 460 kts | 71° |
| 2026-04-25 21:28 | 57.11239 | -1.01330 | 35572 ft | 460 kts | 71° |
| 2026-04-25 21:29 | 57.11967 | -0.97581 | 35721 ft | 460 kts | 71° |
| 2026-04-25 21:29 | 57.13042 | -0.92034 | 35938 ft | 460 kts | 71° |
| 2026-04-25 21:29 | 57.14114 | -0.86482 | 36179 ft | 459 kts | 71° |
| 2026-04-25 21:29 | 57.15181 | -0.80942 | 36412 ft | 459 kts | 71° |
| 2026-04-25 21:30 | 57.16246 | -0.75402 | 36624 ft | 458 kts | 71° |
| 2026-04-25 21:30 | 57.17292 | -0.69942 | 36829 ft | 458 kts | 72° |
| 2026-04-25 21:30 | 57.18350 | -0.64402 | 37036 ft | 458 kts | 72° |
| 2026-04-25 21:30 | 57.19062 | -0.60663 | 37174 ft | 457 kts | 72° |
| 2026-04-25 21:31 | 57.20455 | -0.53333 | 37353 ft | 458 kts | 72° |
| 2026-04-25 21:31 | 57.21504 | -0.47791 | 37325 ft | 457 kts | 72° |
| 2026-04-25 21:31 | 57.23588 | -0.36739 | 37335 ft | 456 kts | 72° |
| 2026-04-25 21:32 | 57.25663 | -0.25670 | 37324 ft | 456 kts | 72° |
| 2026-04-25 21:32 | 57.27728 | -0.14593 | 37327 ft | 456 kts | 72° |
| 2026-04-25 21:33 | 57.29784 | -0.03493 | 37328 ft | 456 kts | 72° |
| 2026-04-25 21:33 | 57.31829 | 0.07610 | 37325 ft | 456 kts | 72° |
| 2026-04-25 21:34 | 57.33867 | 0.18739 | 37322 ft | 457 kts | 72° |
| 2026-04-25 21:34 | 57.35896 | 0.29884 | 37326 ft | 457 kts | 72° |
| 2026-04-25 21:35 | 57.37914 | 0.41037 | 37325 ft | 457 kts | 72° |
| 2026-04-25 21:35 | 57.39923 | 0.52211 | 37323 ft | 457 kts | 72° |
| 2026-04-25 21:36 | 57.41925 | 0.63410 | 37330 ft | 457 kts | 71° |
| 2026-04-25 21:36 | 57.43915 | 0.74610 | 37324 ft | 457 kts | 71° |
| 2026-04-25 21:37 | 57.45561 | 0.83925 | 37326 ft | 457 kts | 71° |
| 2026-04-25 21:37 | 57.47865 | 0.97040 | 37324 ft | 457 kts | 71° |
| 2026-04-25 21:38 | 57.49824 | 1.08273 | 37325 ft | 457 kts | 72° |
| 2026-04-25 21:38 | 57.51774 | 1.19520 | 37325 ft | 457 kts | 72° |
| 2026-04-25 21:39 | 57.53713 | 1.30772 | 37321 ft | 456 kts | 71° |
| 2026-04-25 21:39 | 57.55639 | 1.42021 | 37324 ft | 456 kts | 71° |
| 2026-04-25 21:40 | 57.57556 | 1.53287 | 37317 ft | 456 kts | 71° |
| 2026-04-25 21:40 | 57.59464 | 1.64568 | 37317 ft | 456 kts | 71° |
| 2026-04-25 21:41 | 57.61362 | 1.75867 | 37314 ft | 456 kts | 71° |
| 2026-04-25 21:41 | 57.63250 | 1.87171 | 37317 ft | 456 kts | 71° |
| 2026-04-25 21:42 | 57.65125 | 1.98477 | 37317 ft | 456 kts | 71° |
| 2026-04-25 21:42 | 57.66980 | 2.09732 | 37314 ft | 457 kts | 71° |
| 2026-04-25 21:43 | 57.68839 | 2.21081 | 37292 ft | 457 kts | 71° |
| 2026-04-25 21:43 | 57.70688 | 2.32444 | 37295 ft | 457 kts | 71° |
| 2026-04-25 21:44 | 57.72527 | 2.43820 | 37306 ft | 457 kts | 70° |
| 2026-04-25 21:45 | 57.75262 | 2.60877 | 37293 ft | 456 kts | 70° |
| 2026-04-25 21:45 | 57.77071 | 2.72255 | 37286 ft | 456 kts | 70° |
| 2026-04-25 21:46 | 57.78871 | 2.83649 | 37296 ft | 456 kts | 71° |
| 2026-04-25 21:46 | 57.80661 | 2.95049 | 37301 ft | 456 kts | 71° |
| 2026-04-25 21:47 | 57.82444 | 3.06466 | 37323 ft | 456 kts | 70° |
| 2026-04-25 21:47 | 57.84217 | 3.17887 | 37294 ft | 455 kts | 70° |
| 2026-04-25 21:48 | 57.85979 | 3.29309 | 37295 ft | 456 kts | 70° |
| 2026-04-25 21:48 | 57.87733 | 3.40750 | 37295 ft | 456 kts | 70° |
| 2026-04-25 21:49 | 57.89478 | 3.52211 | 37283 ft | 456 kts | 70° |
| 2026-04-25 21:49 | 57.90642 | 3.63954 | 37176 ft | 463 kts | 90° |
| 2026-04-25 21:49 | 57.90428 | 3.69959 | 37446 ft | 459 kts | 88° |
| 2026-04-25 21:50 | 57.90323 | 3.76005 | 37166 ft | 465 kts | 88° |
| 2026-04-25 21:50 | 57.90060 | 3.88120 | 37314 ft | 465 kts | 89° |
| 2026-04-25 21:51 | 57.89738 | 4.00328 | 37266 ft | 468 kts | 89° |
| 2026-04-25 21:51 | 57.89400 | 4.12547 | 37271 ft | 468 kts | 89° |
| 2026-04-25 21:52 | 57.89050 | 4.24773 | 37270 ft | 468 kts | 89° |
| 2026-04-25 21:52 | 57.88687 | 4.37009 | 37267 ft | 470 kts | 88° |
| 2026-04-25 21:53 | 57.88314 | 4.49197 | 37259 ft | 471 kts | 89° |
| 2026-04-25 21:53 | 57.87927 | 4.61469 | 37260 ft | 471 kts | 89° |
| 2026-04-25 21:54 | 57.87528 | 4.73751 | 37248 ft | 471 kts | 89° |
| 2026-04-25 21:54 | 57.87116 | 4.86023 | 37249 ft | 471 kts | 89° |
| 2026-04-25 21:55 | 57.86692 | 4.98335 | 37237 ft | 474 kts | 88° |
| 2026-04-25 21:55 | 57.86254 | 5.10687 | 37246 ft | 474 kts | 88° |
| 2026-04-25 21:56 | 57.85803 | 5.23046 | 37232 ft | 474 kts | 88° |
| 2026-04-25 21:56 | 57.85341 | 5.35404 | 37232 ft | 474 kts | 89° |
| 2026-04-25 21:57 | 57.84867 | 5.47755 | 37220 ft | 474 kts | 89° |
| 2026-04-25 21:57 | 57.84380 | 5.60135 | 37212 ft | 475 kts | 89° |
| 2026-04-25 21:58 | 57.83882 | 5.72461 | 37212 ft | 475 kts | 89° |
| 2026-04-25 21:58 | 57.83371 | 5.84826 | 37212 ft | 475 kts | 89° |
| 2026-04-25 21:59 | 57.82848 | 5.97175 | 37215 ft | 475 kts | 89° |
| 2026-04-25 21:59 | 57.82314 | 6.09529 | 37239 ft | 475 kts | 89° |
| 2026-04-25 22:00 | 57.81490 | 6.28010 | 37210 ft | 477 kts | 89° |
| 2026-04-25 22:00 | 57.80923 | 6.40396 | 37194 ft | 477 kts | 89° |
| 2026-04-25 22:01 | 57.80344 | 6.52772 | 37195 ft | 477 kts | 89° |
| 2026-04-25 22:01 | 57.79850 | 6.63142 | 37186 ft | 477 kts | 89° |
| 2026-04-25 22:02 | 57.79150 | 6.77534 | 37189 ft | 478 kts | 88° |
| 2026-04-25 22:02 | 57.78531 | 6.89971 | 37180 ft | 479 kts | 89° |
| 2026-04-25 22:03 | 57.77900 | 7.02402 | 37185 ft | 480 kts | 89° |
| 2026-04-25 22:03 | 57.77257 | 7.14841 | 37179 ft | 480 kts | 89° |
| 2026-04-25 22:04 | 57.76601 | 7.27275 | 37175 ft | 480 kts | 89° |
| 2026-04-25 22:04 | 57.75933 | 7.39720 | 37165 ft | 480 kts | 88° |
| 2026-04-25 22:05 | 57.75251 | 7.52171 | 37171 ft | 481 kts | 88° |
| 2026-04-25 22:05 | 57.74557 | 7.64625 | 37167 ft | 481 kts | 89° |
| 2026-04-25 22:06 | 57.73851 | 7.77078 | 37157 ft | 481 kts | 89° |
| 2026-04-25 22:06 | 57.73131 | 7.89535 | 37205 ft | 481 kts | 89° |
| 2026-04-25 22:07 | 57.72524 | 7.99895 | 37152 ft | 483 kts | 88° |
| 2026-04-25 22:07 | 57.71652 | 8.14501 | 37139 ft | 484 kts | 88° |
| 2026-04-25 22:08 | 57.70893 | 8.26993 | 37140 ft | 483 kts | 89° |
| 2026-04-25 22:08 | 57.70125 | 8.39484 | 37135 ft | 484 kts | 89° |
| 2026-04-25 22:09 | 57.69352 | 8.51891 | 37205 ft | 484 kts | 88° |
| 2026-04-25 22:09 | 57.68556 | 8.64468 | 37138 ft | 484 kts | 88° |
| 2026-04-25 22:10 | 57.67753 | 8.76952 | 37140 ft | 485 kts | 88° |
| 2026-04-25 22:10 | 57.66344 | 8.89366 | 37152 ft | 496 kts | 102° |
| 2026-04-25 22:11 | 57.64438 | 9.01568 | 37112 ft | 492 kts | 97° |
| 2026-04-25 22:11 | 57.62642 | 9.13917 | 36648 ft | 493 kts | 97° |
| 2026-04-25 22:12 | 57.61730 | 9.20132 | 35716 ft | 500 kts | 96° |
| 2026-04-25 22:12 | 57.60805 | 9.26421 | 34892 ft | 505 kts | 97° |
| 2026-04-25 22:12 | 57.59873 | 9.32708 | 34398 ft | 501 kts | 96° |
| 2026-04-25 22:12 | 57.59559 | 9.34823 | 34294 ft | 498 kts | 96° |
| 2026-04-25 22:13 | 57.58042 | 9.45023 | 33577 ft | 488 kts | 96° |
| 2026-04-25 22:13 | 57.57130 | 9.51131 | 32719 ft | 492 kts | 96° |
| 2026-04-25 22:13 | 57.56211 | 9.57260 | 31678 ft | 491 kts | 96° |
| 2026-04-25 22:13 | 57.55289 | 9.63368 | 30934 ft | 485 kts | 96° |
| 2026-04-25 22:14 | 57.54389 | 9.69303 | 30715 ft | 467 kts | 95° |
| 2026-04-25 22:14 | 57.53521 | 9.75015 | 30405 ft | 452 kts | 94° |
| 2026-04-25 22:14 | 57.52674 | 9.80594 | 29836 ft | 444 kts | 94° |
| 2026-04-25 22:14 | 57.51839 | 9.86057 | 29298 ft | 434 kts | 94° |
| 2026-04-25 22:15 | 57.51024 | 9.91378 | 28915 ft | 421 kts | 94° |
| 2026-04-25 22:15 | 57.50270 | 9.96555 | 28442 ft | 406 kts | 87° |
| 2026-04-25 22:15 | 57.50052 | 10.01644 | 27682 ft | 392 kts | 76° |
| 2026-04-25 22:16 | 57.49656 | 10.10391 | 26392 ft | 418 kts | 85° |
| 2026-04-25 22:16 | 57.49218 | 10.15803 | 25608 ft | 428 kts | 86° |
| 2026-04-25 22:16 | 57.48753 | 10.21239 | 24841 ft | 436 kts | 87° |
| 2026-04-25 22:16 | 57.48254 | 10.26865 | 24130 ft | 445 kts | 87° |
| 2026-04-25 22:17 | 57.47736 | 10.32576 | 23286 ft | 452 kts | 87° |
| 2026-04-25 22:17 | 57.47203 | 10.38380 | 22346 ft | 459 kts | 88° |
| 2026-04-25 22:17 | 57.46660 | 10.44259 | 21427 ft | 465 kts | 88° |
| 2026-04-25 22:17 | 57.46108 | 10.50212 | 20523 ft | 470 kts | 88° |
| 2026-04-25 22:18 | 57.45547 | 10.56205 | 19652 ft | 469 kts | 89° |
| 2026-04-25 22:18 | 57.44990 | 10.62101 | 18862 ft | 458 kts | 88° |
| 2026-04-25 22:18 | 57.44445 | 10.67871 | 18053 ft | 449 kts | 88° |
| 2026-04-25 22:18 | 57.43910 | 10.73521 | 17155 ft | 441 kts | 89° |
| 2026-04-25 22:19 | 57.43383 | 10.79067 | 16343 ft | 432 kts | 89° |
| 2026-04-25 22:19 | 57.42862 | 10.84510 | 15630 ft | 424 kts | 90° |
| 2026-04-25 22:19 | 57.42350 | 10.89838 | 14861 ft | 416 kts | 90° |
| 2026-04-25 22:19 | 57.41845 | 10.95069 | 14126 ft | 408 kts | 91° |
| 2026-04-25 22:20 | 57.41346 | 11.00207 | 13342 ft | 401 kts | 91° |
| 2026-04-25 22:20 | 57.40854 | 11.05250 | 12545 ft | 394 kts | 92° |
| 2026-04-25 22:20 | 57.40369 | 11.10200 | 11782 ft | 386 kts | 93° |
| 2026-04-25 22:20 | 57.39894 | 11.15033 | 11220 ft | 375 kts | 94° |
| 2026-04-25 22:21 | 57.39437 | 11.19673 | 10904 ft | 357 kts | 94° |
| 2026-04-25 22:21 | 57.38999 | 11.24097 | 10604 ft | 341 kts | 94° |
| 2026-04-25 22:21 | 57.38577 | 11.28338 | 10305 ft | 327 kts | 94° |
| 2026-04-25 22:21 | 57.38175 | 11.32366 | 10152 ft | 309 kts | 94° |
| 2026-04-25 22:22 | 57.37793 | 11.36170 | 9970 ft | 293 kts | 94° |
| 2026-04-25 22:22 | 57.37427 | 11.39824 | 9645 ft | 283 kts | 94° |
| 2026-04-25 22:22 | 57.37075 | 11.43299 | 9415 ft | 265 kts | 94° |
| 2026-04-25 22:22 | 57.36744 | 11.46563 | 9111 ft | 251 kts | 94° |
| 2026-04-25 22:23 | 57.36429 | 11.49660 | 8812 ft | 238 kts | 93° |
| 2026-04-25 22:23 | 57.36132 | 11.52569 | 8573 ft | 220 kts | 93° |
| 2026-04-25 22:23 | 57.35858 | 11.55208 | 8353 ft | 198 kts | 92° |
| 2026-04-25 22:23 | 57.35610 | 11.57600 | 8105 ft | 180 kts | 91° |
| 2026-04-25 22:24 | 57.35381 | 11.59855 | 7893 ft | 181 kts | 91° |
| 2026-04-25 22:24 | 57.35147 | 11.62191 | 7806 ft | 188 kts | 92° |
| 2026-04-25 22:24 | 57.34903 | 11.64601 | 7694 ft | 192 kts | 92° |
| 2026-04-25 22:24 | 57.34654 | 11.67032 | 7523 ft | 192 kts | 92° |
| 2026-04-25 22:25 | 57.34405 | 11.69452 | 7313 ft | 191 kts | 92° |
| 2026-04-25 22:25 | 57.34157 | 11.71858 | 7089 ft | 190 kts | 92° |
| 2026-04-25 22:25 | 57.33910 | 11.74246 | 6879 ft | 188 kts | 91° |
| 2026-04-25 22:25 | 57.33928 | 11.76569 | 6638 ft | 175 kts | 69° |
| 2026-04-25 22:26 | 57.34230 | 11.78695 | 6483 ft | 172 kts | 65° |
| 2026-04-25 22:26 | 57.34568 | 11.80824 | 6412 ft | 172 kts | 65° |
| 2026-04-25 22:26 | 57.34916 | 11.82938 | 6376 ft | 170 kts | 59° |
| 2026-04-25 22:26 | 57.35399 | 11.84906 | 6341 ft | 167 kts | 54° |
| 2026-04-25 22:27 | 57.35907 | 11.86831 | 6247 ft | 167 kts | 55° |
| 2026-04-25 22:27 | 57.36426 | 11.88771 | 5865 ft | 168 kts | 55° |
| 2026-04-25 22:27 | 57.36940 | 11.90717 | 5405 ft | 169 kts | 55° |
| 2026-04-25 22:27 | 57.37445 | 11.92656 | 5048 ft | 162 kts | 55° |
| 2026-04-25 22:28 | 57.37902 | 11.94481 | 4802 ft | 151 kts | 55° |
| 2026-04-25 22:28 | 57.38320 | 11.96203 | 4508 ft | 143 kts | 55° |
| 2026-04-25 22:28 | 57.38713 | 11.97878 | 4230 ft | 140 kts | 55° |
| 2026-04-25 22:28 | 57.39107 | 11.99511 | 3978 ft | 138 kts | 54° |
| 2026-04-25 22:29 | 57.39501 | 12.01122 | 3672 ft | 137 kts | 54° |
| 2026-04-25 22:29 | 57.39918 | 12.02704 | 3334 ft | 133 kts | 45° |
| 2026-04-25 22:29 | 57.40572 | 12.03759 | 3070 ft | 118 kts | 27° |
| 2026-04-25 22:30 | 57.41971 | 12.05411 | 3186 ft | 119 kts | 24° |
| 2026-04-25 22:30 | 57.42688 | 12.06194 | 3208 ft | 120 kts | 23° |
| 2026-04-25 22:30 | 57.43411 | 12.06951 | 3159 ft | 119 kts | 22° |
| 2026-04-25 22:30 | 57.43889 | 12.07437 | 3119 ft | 118 kts | 22° |
| 2026-04-25 22:31 | 57.44859 | 12.08400 | 3066 ft | 118 kts | 21° |
| 2026-04-25 22:31 | 57.45592 | 12.09110 | 3060 ft | 119 kts | 21° |
| 2026-04-25 22:31 | 57.46329 | 12.09811 | 3059 ft | 119 kts | 20° |
| 2026-04-25 22:31 | 57.47065 | 12.10502 | 3050 ft | 118 kts | 20° |
| 2026-04-25 22:32 | 57.47800 | 12.11186 | 3030 ft | 118 kts | 20° |
| 2026-04-25 22:32 | 57.48538 | 12.11869 | 3040 ft | 119 kts | 20° |
| 2026-04-25 22:32 | 57.49276 | 12.12547 | 3061 ft | 118 kts | 20° |
| 2026-04-25 22:32 | 57.50010 | 12.13225 | 3051 ft | 118 kts | 20° |
| 2026-04-25 22:33 | 57.50744 | 12.13896 | 3043 ft | 118 kts | 20° |
| 2026-04-25 22:33 | 57.51480 | 12.14564 | 3020 ft | 118 kts | 20° |
| 2026-04-25 22:33 | 57.52214 | 12.15229 | 3062 ft | 117 kts | 20° |
| 2026-04-25 22:33 | 57.52953 | 12.15898 | 3086 ft | 118 kts | 20° |
| 2026-04-25 22:34 | 57.53694 | 12.16568 | 3013 ft | 119 kts | 20° |
| 2026-04-25 22:34 | 57.54436 | 12.17239 | 2874 ft | 118 kts | 20° |
| 2026-04-25 22:34 | 57.55164 | 12.17897 | 2698 ft | 117 kts | 20° |
| 2026-04-25 22:34 | 57.55908 | 12.18570 | 2586 ft | 117 kts | 20° |
| 2026-04-25 22:35 | 57.56627 | 12.19222 | 2429 ft | 116 kts | 20° |
| 2026-04-25 22:35 | 57.57351 | 12.19876 | 2277 ft | 115 kts | 19° |
| 2026-04-25 22:35 | 57.58067 | 12.20525 | 2120 ft | 114 kts | 19° |
| 2026-04-25 22:35 | 57.58786 | 12.21175 | 1967 ft | 115 kts | 20° |
| 2026-04-25 22:36 | 57.59501 | 12.21824 | 1818 ft | 114 kts | 19° |
| 2026-04-25 22:36 | 57.60214 | 12.22471 | 1640 ft | 115 kts | 20° |
| 2026-04-25 22:36 | 57.60942 | 12.23130 | 1470 ft | 117 kts | 20° |
| 2026-04-25 22:36 | 57.61684 | 12.23803 | 1322 ft | 121 kts | 20° |
| 2026-04-25 22:37 | 57.62444 | 12.24491 | 1103 ft | 124 kts | 21° |
| 2026-04-25 22:37 | 57.63240 | 12.25213 | 924 ft | 130 kts | 22° |
| 2026-04-25 22:37 | 57.64059 | 12.25953 | 729 ft | 132 kts | 23° |
| 2026-04-25 22:37 | 57.64885 | 12.26686 | 549 ft | 132 kts | 25° |
| 2026-04-25 22:38 | 57.65638 | 12.27366 | 514 ft | 95 kts | 27° |
| 2026-04-25 22:38 | 57.66032 | 12.27741 | 518 ft | 36 kts | 27° |
| 2026-04-25 22:38 | 57.66134 | 12.27970 | 519 ft | 20 kts | 101° |
| 2026-04-25 22:38 | 57.66120 | 12.28041 | 520 ft | 1 kts | 115° |
| 2026-04-25 22:40 | 57.66118 | 12.28049 | 520 ft | 2 kts | 115° |
| 2026-04-25 22:40 | 57.66105 | 12.28112 | 520 ft | 10 kts | 99° |
| 2026-04-25 22:40 | 57.66169 | 12.28223 | 521 ft | 18 kts | 26° |
| 2026-04-25 22:41 | 57.66296 | 12.28339 | 523 ft | 20 kts | 26° |
| 2026-04-25 22:41 | 57.66405 | 12.28438 | 524 ft | 17 kts | 26° |
| 2026-04-25 22:41 | 57.66513 | 12.28537 | 525 ft | 18 kts | 26° |
| 2026-04-25 22:41 | 57.66624 | 12.28636 | 526 ft | 17 kts | 26° |
| 2026-04-25 22:42 | 57.66673 | 12.28713 | 526 ft | 8 kts | 78° |
| 2026-04-25 22:42 | 57.66645 | 12.28834 | 527 ft | 15 kts | 116° |
| 2026-04-25 22:42 | 57.66606 | 12.29000 | 527 ft | 11 kts | 84° |
| 2026-04-25 22:42 | 57.66676 | 12.29076 | 527 ft | 8 kts | 26° |
| 2026-04-25 22:43 | 57.66731 | 12.29127 | 528 ft | 5 kts | 26° |
| 2026-04-25 22:43 | 57.66747 | 12.29180 | 528 ft | 5 kts | 90° |
| 2026-04-25 22:43 | 57.66737 | 12.29238 | 528 ft | 2 kts | 115° |
| 2026-04-25 22:43 | 57.66731 | 12.29258 | 528 ft | 1 kts | 116° |
| 2026-04-25 22:44 | 57.66729 | 12.29268 | 528 ft | 1 kts | 116° |
| 2026-04-25 22:44 | 57.66728 | 12.29272 | 528 ft | 0 kts | 116° |
| 2026-04-25 22:44 | 57.66727 | 12.29275 | 528 ft | 1 kts | 116° |
| 2026-04-25 22:44 | 57.66727 | 12.29276 | 528 ft | 0 kts | 116° |